sensor_id;sensor_type;location;lat;lon;timestamp;temperature;humidity
20125;DHT22;10223;50.862;4.360;2023-07-24T00:01:04;18.80;99.90
20125;DHT22;10223;50.862;4.360;2023-07-24T00:03:31;18.90;99.90
20125;DHT22;10223;50.862;4.360;2023-07-24T00:05:58;18.80;99.90
20125;DHT22;10223;50.862;4.360;2023-07-24T00:08:27;19.00;99.90
20125;DHT22;10223;50.862;4.360;2023-07-24T00:10:53;18.90;99.90
20125;DHT22;10223;50.862;4.360;2023-07-24T00:13:20;18.90;99.90
20125;DHT22;10223;50.862;4.360;2023-07-24T00:15:47;18.80;99.90
20125;DHT22;10223;50.862;4.360;2023-07-24T00:18:13;18.70;99.90
20125;DHT22;10223;50.862;4.360;2023-07-24T00:20:40;18.70;99.90
20125;DHT22;10223;50.862;4.360;2023-07-24T00:23:07;18.70;99.90
20125;DHT22;10223;50.862;4.360;2023-07-24T00:25:35;18.60;99.90
20125;DHT22;10223;50.862;4.360;2023-07-24T00:28:02;18.60;99.90
20125;DHT22;10223;50.862;4.360;2023-07-24T00:30:29;18.70;99.90
20125;DHT22;10223;50.862;4.360;2023-07-24T00:32:55;18.70;99.90
20125;DHT22;10223;50.862;4.360;2023-07-24T00:35:22;18.60;99.90
20125;DHT22;10223;50.862;4.360;2023-07-24T00:37:49;18.70;99.90
20125;DHT22;10223;50.862;4.360;2023-07-24T00:40:16;18.60;99.90
20125;DHT22;10223;50.862;4.360;2023-07-24T00:42:47;18.60;99.90
20125;DHT22;10223;50.862;4.360;2023-07-24T00:45:15;18.60;99.90
20125;DHT22;10223;50.862;4.360;2023-07-24T00:47:42;18.70;99.90
20125;DHT22;10223;50.862;4.360;2023-07-24T00:50:10;18.70;99.90
20125;DHT22;10223;50.862;4.360;2023-07-24T00:52:38;18.70;99.90
20125;DHT22;10223;50.862;4.360;2023-07-24T00:55:06;18.70;99.90
20125;DHT22;10223;50.862;4.360;2023-07-24T00:57:33;18.70;99.90
20125;DHT22;10223;50.862;4.360;2023-07-24T01:00:02;18.80;99.90
20125;DHT22;10223;50.862;4.360;2023-07-24T01:02:30;18.80;99.90
20125;DHT22;10223;50.862;4.360;2023-07-24T01:04:57;18.70;99.90
20125;DHT22;10223;50.862;4.360;2023-07-24T01:07:24;18.80;99.90
20125;DHT22;10223;50.862;4.360;2023-07-24T01:09:51;18.70;99.90
20125;DHT22;10223;50.862;4.360;2023-07-24T01:12:21;18.80;99.90
20125;DHT22;10223;50.862;4.360;2023-07-24T01:14:52;18.80;99.90
20125;DHT22;10223;50.862;4.360;2023-07-24T01:17:24;18.70;99.90
20125;DHT22;10223;50.862;4.360;2023-07-24T01:19:54;18.70;99.90
20125;DHT22;10223;50.862;4.360;2023-07-24T01:22:38;18.60;99.90
20125;DHT22;10223;50.862;4.360;2023-07-24T01:25:10;18.60;99.90
20125;DHT22;10223;50.862;4.360;2023-07-24T01:27:43;18.60;99.90
20125;DHT22;10223;50.862;4.360;2023-07-24T01:30:11;18.70;99.90
20125;DHT22;10223;50.862;4.360;2023-07-24T01:32:38;18.60;99.90
20125;DHT22;10223;50.862;4.360;2023-07-24T01:35:06;18.60;99.90
20125;DHT22;10223;50.862;4.360;2023-07-24T01:37:34;18.60;99.90
20125;DHT22;10223;50.862;4.360;2023-07-24T01:40:01;18.60;99.90
20125;DHT22;10223;50.862;4.360;2023-07-24T01:42:28;18.60;99.90
20125;DHT22;10223;50.862;4.360;2023-07-24T01:44:57;18.60;99.90
20125;DHT22;10223;50.862;4.360;2023-07-24T01:47:23;18.70;99.90
20125;DHT22;10223;50.862;4.360;2023-07-24T01:49:51;18.60;99.90
20125;DHT22;10223;50.862;4.360;2023-07-24T01:52:18;18.50;99.90
20125;DHT22;10223;50.862;4.360;2023-07-24T01:54:44;18.50;99.90
20125;DHT22;10223;50.862;4.360;2023-07-24T01:57:11;18.50;99.90
20125;DHT22;10223;50.862;4.360;2023-07-24T01:59:38;18.40;99.90
20125;DHT22;10223;50.862;4.360;2023-07-24T02:02:06;18.20;99.90
20125;DHT22;10223;50.862;4.360;2023-07-24T02:04:33;18.30;99.90
20125;DHT22;10223;50.862;4.360;2023-07-24T02:07:00;18.30;99.90
20125;DHT22;10223;50.862;4.360;2023-07-24T02:09:26;18.30;99.90
20125;DHT22;10223;50.862;4.360;2023-07-24T02:11:53;18.10;99.90
20125;DHT22;10223;50.862;4.360;2023-07-24T02:14:20;18.10;99.90
20125;DHT22;10223;50.862;4.360;2023-07-24T02:16:47;18.00;99.90
20125;DHT22;10223;50.862;4.360;2023-07-24T02:19:15;18.00;99.90
20125;DHT22;10223;50.862;4.360;2023-07-24T02:21:42;18.00;99.90
20125;DHT22;10223;50.862;4.360;2023-07-24T02:24:09;18.00;99.90
20125;DHT22;10223;50.862;4.360;2023-07-24T02:26:35;18.00;99.90
20125;DHT22;10223;50.862;4.360;2023-07-24T02:29:02;17.90;99.90
20125;DHT22;10223;50.862;4.360;2023-07-24T02:31:29;17.90;99.90
20125;DHT22;10223;50.862;4.360;2023-07-24T02:33:56;17.90;99.90
20125;DHT22;10223;50.862;4.360;2023-07-24T02:36:24;17.90;99.90
20125;DHT22;10223;50.862;4.360;2023-07-24T02:38:51;17.90;99.90
20125;DHT22;10223;50.862;4.360;2023-07-24T02:41:18;18.00;99.90
20125;DHT22;10223;50.862;4.360;2023-07-24T02:43:45;18.00;99.90
20125;DHT22;10223;50.862;4.360;2023-07-24T02:46:12;18.00;99.90
20125;DHT22;10223;50.862;4.360;2023-07-24T02:48:39;18.00;99.90
20125;DHT22;10223;50.862;4.360;2023-07-24T02:51:05;17.90;99.90
20125;DHT22;10223;50.862;4.360;2023-07-24T02:53:34;17.90;99.90
20125;DHT22;10223;50.862;4.360;2023-07-24T02:56:01;17.90;99.90
20125;DHT22;10223;50.862;4.360;2023-07-24T02:58:28;17.90;99.90
20125;DHT22;10223;50.862;4.360;2023-07-24T03:01:02;17.90;99.90
20125;DHT22;10223;50.862;4.360;2023-07-24T03:03:29;17.80;99.90
20125;DHT22;10223;50.862;4.360;2023-07-24T03:05:56;17.60;99.90
20125;DHT22;10223;50.862;4.360;2023-07-24T03:08:23;17.70;99.90
20125;DHT22;10223;50.862;4.360;2023-07-24T03:10:51;17.70;99.90
20125;DHT22;10223;50.862;4.360;2023-07-24T03:13:18;17.70;99.90
20125;DHT22;10223;50.862;4.360;2023-07-24T03:15:51;17.60;99.90
20125;DHT22;10223;50.862;4.360;2023-07-24T03:18:18;17.50;99.90
20125;DHT22;10223;50.862;4.360;2023-07-24T03:20:45;17.30;99.90
20125;DHT22;10223;50.862;4.360;2023-07-24T03:23:12;17.30;99.90
20125;DHT22;10223;50.862;4.360;2023-07-24T03:25:38;17.20;99.90
20125;DHT22;10223;50.862;4.360;2023-07-24T03:28:07;17.30;99.90
20125;DHT22;10223;50.862;4.360;2023-07-24T03:30:34;17.40;99.90
20125;DHT22;10223;50.862;4.360;2023-07-24T03:33:01;17.40;99.90
20125;DHT22;10223;50.862;4.360;2023-07-24T03:35:27;17.30;99.90
20125;DHT22;10223;50.862;4.360;2023-07-24T03:37:54;17.20;99.90
20125;DHT22;10223;50.862;4.360;2023-07-24T03:40:21;17.40;99.90
20125;DHT22;10223;50.862;4.360;2023-07-24T03:42:48;17.30;99.90
20125;DHT22;10223;50.862;4.360;2023-07-24T03:45:16;17.30;99.90
20125;DHT22;10223;50.862;4.360;2023-07-24T03:47:43;17.40;99.90
20125;DHT22;10223;50.862;4.360;2023-07-24T03:50:10;17.30;99.90
20125;DHT22;10223;50.862;4.360;2023-07-24T03:52:37;17.20;99.90
20125;DHT22;10223;50.862;4.360;2023-07-24T03:55:05;17.10;99.90
20125;DHT22;10223;50.862;4.360;2023-07-24T03:57:33;17.20;99.90
20125;DHT22;10223;50.862;4.360;2023-07-24T04:00:00;17.30;99.90
20125;DHT22;10223;50.862;4.360;2023-07-24T04:02:28;17.30;99.90
20125;DHT22;10223;50.862;4.360;2023-07-24T04:04:55;17.30;99.90
20125;DHT22;10223;50.862;4.360;2023-07-24T04:07:21;17.30;99.90
20125;DHT22;10223;50.862;4.360;2023-07-24T04:09:48;17.20;99.90
20125;DHT22;10223;50.862;4.360;2023-07-24T04:12:15;17.20;99.90
20125;DHT22;10223;50.862;4.360;2023-07-24T04:14:42;17.30;99.90
20125;DHT22;10223;50.862;4.360;2023-07-24T04:17:08;17.30;99.90
20125;DHT22;10223;50.862;4.360;2023-07-24T04:19:37;17.30;99.90
20125;DHT22;10223;50.862;4.360;2023-07-24T04:22:03;17.40;99.90
20125;DHT22;10223;50.862;4.360;2023-07-24T04:24:30;17.30;99.90
20125;DHT22;10223;50.862;4.360;2023-07-24T04:26:57;17.40;99.90
20125;DHT22;10223;50.862;4.360;2023-07-24T04:29:24;17.30;99.90
20125;DHT22;10223;50.862;4.360;2023-07-24T04:31:51;17.40;99.90
20125;DHT22;10223;50.862;4.360;2023-07-24T04:34:18;17.40;99.90
20125;DHT22;10223;50.862;4.360;2023-07-24T04:36:47;17.40;99.90
20125;DHT22;10223;50.862;4.360;2023-07-24T04:39:13;17.50;99.90
20125;DHT22;10223;50.862;4.360;2023-07-24T04:41:40;17.60;99.90
20125;DHT22;10223;50.862;4.360;2023-07-24T04:44:07;17.50;99.90
20125;DHT22;10223;50.862;4.360;2023-07-24T04:46:34;17.40;99.90
20125;DHT22;10223;50.862;4.360;2023-07-24T04:49:00;17.30;99.90
20125;DHT22;10223;50.862;4.360;2023-07-24T04:51:27;17.30;99.90
20125;DHT22;10223;50.862;4.360;2023-07-24T04:53:55;17.40;99.90
20125;DHT22;10223;50.862;4.360;2023-07-24T04:56:22;17.30;99.90
20125;DHT22;10223;50.862;4.360;2023-07-24T04:58:49;17.20;99.90
20125;DHT22;10223;50.862;4.360;2023-07-24T05:01:16;17.20;99.90
20125;DHT22;10223;50.862;4.360;2023-07-24T05:03:42;17.20;99.90
20125;DHT22;10223;50.862;4.360;2023-07-24T05:06:09;17.20;99.90
20125;DHT22;10223;50.862;4.360;2023-07-24T05:08:36;17.30;99.90
20125;DHT22;10223;50.862;4.360;2023-07-24T05:11:04;17.40;99.90
20125;DHT22;10223;50.862;4.360;2023-07-24T05:13:31;17.20;99.90
20125;DHT22;10223;50.862;4.360;2023-07-24T05:15:57;17.10;99.90
20125;DHT22;10223;50.862;4.360;2023-07-24T05:18:24;17.00;99.90
20125;DHT22;10223;50.862;4.360;2023-07-24T05:20:51;17.00;99.90
20125;DHT22;10223;50.862;4.360;2023-07-24T05:23:18;16.90;99.90
20125;DHT22;10223;50.862;4.360;2023-07-24T05:25:45;17.10;99.90
20125;DHT22;10223;50.862;4.360;2023-07-24T05:28:13;16.90;99.90
20125;DHT22;10223;50.862;4.360;2023-07-24T05:30:40;16.90;99.90
20125;DHT22;10223;50.862;4.360;2023-07-24T05:33:06;17.00;99.90
20125;DHT22;10223;50.862;4.360;2023-07-24T05:35:33;17.00;99.90
20125;DHT22;10223;50.862;4.360;2023-07-24T05:38:00;17.30;99.90
20125;DHT22;10223;50.862;4.360;2023-07-24T05:40:28;17.20;99.90
20125;DHT22;10223;50.862;4.360;2023-07-24T05:42:54;17.30;99.90
20125;DHT22;10223;50.862;4.360;2023-07-24T05:45:23;17.40;99.90
20125;DHT22;10223;50.862;4.360;2023-07-24T05:47:49;17.30;99.90
20125;DHT22;10223;50.862;4.360;2023-07-24T05:50:16;17.20;99.90
20125;DHT22;10223;50.862;4.360;2023-07-24T05:52:43;17.20;99.90
20125;DHT22;10223;50.862;4.360;2023-07-24T05:55:10;17.20;99.90
20125;DHT22;10223;50.862;4.360;2023-07-24T05:57:37;17.20;99.90
20125;DHT22;10223;50.862;4.360;2023-07-24T06:00:05;17.30;99.90
20125;DHT22;10223;50.862;4.360;2023-07-24T06:02:33;17.30;99.90
20125;DHT22;10223;50.862;4.360;2023-07-24T06:05:00;17.20;99.90
20125;DHT22;10223;50.862;4.360;2023-07-24T06:07:26;17.30;99.90
20125;DHT22;10223;50.862;4.360;2023-07-24T06:09:53;17.40;99.90
20125;DHT22;10223;50.862;4.360;2023-07-24T06:12:20;17.50;99.90
20125;DHT22;10223;50.862;4.360;2023-07-24T06:14:47;17.40;99.90
20125;DHT22;10223;50.862;4.360;2023-07-24T06:17:13;17.50;99.90
20125;DHT22;10223;50.862;4.360;2023-07-24T06:19:42;17.50;99.90
20125;DHT22;10223;50.862;4.360;2023-07-24T06:22:08;17.50;99.90
20125;DHT22;10223;50.862;4.360;2023-07-24T06:24:35;17.40;99.90
20125;DHT22;10223;50.862;4.360;2023-07-24T06:27:03;17.40;99.90
20125;DHT22;10223;50.862;4.360;2023-07-24T06:29:31;17.50;99.90
20125;DHT22;10223;50.862;4.360;2023-07-24T06:31:58;17.50;99.90
20125;DHT22;10223;50.862;4.360;2023-07-24T06:34:25;17.40;99.90
20125;DHT22;10223;50.862;4.360;2023-07-24T06:36:53;17.30;99.90
20125;DHT22;10223;50.862;4.360;2023-07-24T06:39:20;17.60;99.90
20125;DHT22;10223;50.862;4.360;2023-07-24T06:41:47;17.60;99.90
20125;DHT22;10223;50.862;4.360;2023-07-24T06:44:14;17.60;99.90
20125;DHT22;10223;50.862;4.360;2023-07-24T06:46:40;17.70;99.90
20125;DHT22;10223;50.862;4.360;2023-07-24T06:49:07;17.70;99.90
20125;DHT22;10223;50.862;4.360;2023-07-24T06:51:35;17.70;99.90
20125;DHT22;10223;50.862;4.360;2023-07-24T06:54:04;17.80;99.90
20125;DHT22;10223;50.862;4.360;2023-07-24T06:56:31;17.90;99.90
20125;DHT22;10223;50.862;4.360;2023-07-24T06:58:58;18.00;99.90
20125;DHT22;10223;50.862;4.360;2023-07-24T07:01:24;17.90;99.90
20125;DHT22;10223;50.862;4.360;2023-07-24T07:03:51;17.90;99.90
20125;DHT22;10223;50.862;4.360;2023-07-24T07:06:18;18.10;99.90
20125;DHT22;10223;50.862;4.360;2023-07-24T07:08:45;18.00;99.90
20125;DHT22;10223;50.862;4.360;2023-07-24T07:11:13;18.00;99.90
20125;DHT22;10223;50.862;4.360;2023-07-24T07:13:40;18.00;99.90
20125;DHT22;10223;50.862;4.360;2023-07-24T07:16:07;18.10;99.90
20125;DHT22;10223;50.862;4.360;2023-07-24T07:18:34;18.10;99.90
20125;DHT22;10223;50.862;4.360;2023-07-24T07:21:01;18.10;99.90
20125;DHT22;10223;50.862;4.360;2023-07-24T07:23:27;18.20;99.90
20125;DHT22;10223;50.862;4.360;2023-07-24T07:25:54;18.30;99.90
20125;DHT22;10223;50.862;4.360;2023-07-24T07:28:22;18.30;99.90
20125;DHT22;10223;50.862;4.360;2023-07-24T07:30:49;18.40;99.90
20125;DHT22;10223;50.862;4.360;2023-07-24T07:33:16;18.40;99.90
20125;DHT22;10223;50.862;4.360;2023-07-24T07:35:43;18.30;99.90
20125;DHT22;10223;50.862;4.360;2023-07-24T07:38:10;18.40;99.90
20125;DHT22;10223;50.862;4.360;2023-07-24T07:40:37;18.60;99.90
20125;DHT22;10223;50.862;4.360;2023-07-24T07:43:04;18.60;99.90
20125;DHT22;10223;50.862;4.360;2023-07-24T07:45:33;18.60;99.90
20125;DHT22;10223;50.862;4.360;2023-07-24T07:48:00;18.80;99.90
20125;DHT22;10223;50.862;4.360;2023-07-24T07:50:27;18.90;99.90
20125;DHT22;10223;50.862;4.360;2023-07-24T07:52:53;18.90;99.90
20125;DHT22;10223;50.862;4.360;2023-07-24T07:55:20;19.10;99.90
20125;DHT22;10223;50.862;4.360;2023-07-24T07:57:47;19.10;99.90
20125;DHT22;10223;50.862;4.360;2023-07-24T08:00:15;19.30;99.90
20125;DHT22;10223;50.862;4.360;2023-07-24T08:02:43;19.40;99.90
20125;DHT22;10223;50.862;4.360;2023-07-24T08:05:10;19.40;99.90
20125;DHT22;10223;50.862;4.360;2023-07-24T08:07:37;19.30;99.90
20125;DHT22;10223;50.862;4.360;2023-07-24T08:10:05;19.20;99.90
20125;DHT22;10223;50.862;4.360;2023-07-24T08:12:32;19.00;99.90
20125;DHT22;10223;50.862;4.360;2023-07-24T08:14:59;18.90;99.90
20125;DHT22;10223;50.862;4.360;2023-07-24T08:17:26;18.90;99.90
20125;DHT22;10223;50.862;4.360;2023-07-24T08:19:54;19.00;99.90
20125;DHT22;10223;50.862;4.360;2023-07-24T08:22:21;19.10;99.90
20125;DHT22;10223;50.862;4.360;2023-07-24T08:24:48;19.00;99.90
20125;DHT22;10223;50.862;4.360;2023-07-24T08:27:16;18.90;99.90
20125;DHT22;10223;50.862;4.360;2023-07-24T08:29:43;19.00;99.90
20125;DHT22;10223;50.862;4.360;2023-07-24T08:32:10;18.80;99.90
20125;DHT22;10223;50.862;4.360;2023-07-24T08:34:36;18.80;99.90
20125;DHT22;10223;50.862;4.360;2023-07-24T08:37:05;18.90;99.90
20125;DHT22;10223;50.862;4.360;2023-07-24T08:39:32;19.00;99.90
20125;DHT22;10223;50.862;4.360;2023-07-24T08:41:59;19.10;99.90
20125;DHT22;10223;50.862;4.360;2023-07-24T08:44:27;19.10;99.90
20125;DHT22;10223;50.862;4.360;2023-07-24T08:46:56;19.00;99.90
20125;DHT22;10223;50.862;4.360;2023-07-24T08:49:24;19.10;99.90
20125;DHT22;10223;50.862;4.360;2023-07-24T08:51:52;19.10;99.90
20125;DHT22;10223;50.862;4.360;2023-07-24T08:54:22;19.00;99.90
20125;DHT22;10223;50.862;4.360;2023-07-24T08:56:50;18.90;99.90
20125;DHT22;10223;50.862;4.360;2023-07-24T08:59:17;18.80;99.90
20125;DHT22;10223;50.862;4.360;2023-07-24T09:01:44;18.80;99.90
20125;DHT22;10223;50.862;4.360;2023-07-24T09:04:12;18.70;99.90
20125;DHT22;10223;50.862;4.360;2023-07-24T09:06:39;18.70;99.90
20125;DHT22;10223;50.862;4.360;2023-07-24T09:09:12;18.70;99.90
20125;DHT22;10223;50.862;4.360;2023-07-24T09:11:48;18.60;99.90
20125;DHT22;10223;50.862;4.360;2023-07-24T09:14:22;18.60;99.90
20125;DHT22;10223;50.862;4.360;2023-07-24T09:16:49;18.80;99.90
20125;DHT22;10223;50.862;4.360;2023-07-24T09:19:18;18.60;99.90
20125;DHT22;10223;50.862;4.360;2023-07-24T09:21:45;18.60;99.90
20125;DHT22;10223;50.862;4.360;2023-07-24T09:24:13;18.70;99.90
20125;DHT22;10223;50.862;4.360;2023-07-24T09:26:49;18.80;99.90
20125;DHT22;10223;50.862;4.360;2023-07-24T09:29:16;18.80;99.90
20125;DHT22;10223;50.862;4.360;2023-07-24T09:31:43;18.80;99.90
20125;DHT22;10223;50.862;4.360;2023-07-24T09:34:15;18.80;99.90
20125;DHT22;10223;50.862;4.360;2023-07-24T09:36:43;18.90;99.90
20125;DHT22;10223;50.862;4.360;2023-07-24T09:39:10;18.90;99.90
20125;DHT22;10223;50.862;4.360;2023-07-24T09:41:38;19.00;99.90
20125;DHT22;10223;50.862;4.360;2023-07-24T09:44:06;19.10;99.90
20125;DHT22;10223;50.862;4.360;2023-07-24T09:46:33;19.10;99.90
20125;DHT22;10223;50.862;4.360;2023-07-24T09:49:00;18.90;99.90
20125;DHT22;10223;50.862;4.360;2023-07-24T09:51:29;18.50;99.90
20125;DHT22;10223;50.862;4.360;2023-07-24T09:54:03;18.40;99.90
20125;DHT22;10223;50.862;4.360;2023-07-24T09:56:33;18.30;99.90
20125;DHT22;10223;50.862;4.360;2023-07-24T09:59:01;17.90;99.90
20125;DHT22;10223;50.862;4.360;2023-07-24T10:01:31;17.60;99.90
20125;DHT22;10223;50.862;4.360;2023-07-24T10:03:59;17.30;99.90
20125;DHT22;10223;50.862;4.360;2023-07-24T10:06:26;17.20;99.90
20125;DHT22;10223;50.862;4.360;2023-07-24T10:08:54;17.50;99.90
20125;DHT22;10223;50.862;4.360;2023-07-24T10:11:22;17.50;99.90
20125;DHT22;10223;50.862;4.360;2023-07-24T10:13:50;17.30;99.90
20125;DHT22;10223;50.862;4.360;2023-07-24T10:16:18;17.40;99.90
20125;DHT22;10223;50.862;4.360;2023-07-24T10:18:46;17.60;99.90
20125;DHT22;10223;50.862;4.360;2023-07-24T10:21:14;17.80;99.90
20125;DHT22;10223;50.862;4.360;2023-07-24T10:23:42;17.90;99.90
20125;DHT22;10223;50.862;4.360;2023-07-24T10:26:10;18.00;99.90
20125;DHT22;10223;50.862;4.360;2023-07-24T10:28:38;18.10;99.90
20125;DHT22;10223;50.862;4.360;2023-07-24T10:31:05;18.50;99.90
20125;DHT22;10223;50.862;4.360;2023-07-24T10:33:35;18.60;99.90
20125;DHT22;10223;50.862;4.360;2023-07-24T10:36:06;18.70;99.90
20125;DHT22;10223;50.862;4.360;2023-07-24T10:38:36;18.80;99.90
20125;DHT22;10223;50.862;4.360;2023-07-24T10:41:04;19.30;99.90
20125;DHT22;10223;50.862;4.360;2023-07-24T10:43:40;19.80;99.90
20125;DHT22;10223;50.862;4.360;2023-07-24T10:46:07;19.80;99.90
20125;DHT22;10223;50.862;4.360;2023-07-24T10:48:34;20.20;99.90
20125;DHT22;10223;50.862;4.360;2023-07-24T10:51:07;20.00;99.90
20125;DHT22;10223;50.862;4.360;2023-07-24T10:53:35;20.00;99.90
20125;DHT22;10223;50.862;4.360;2023-07-24T10:56:02;20.20;99.90
20125;DHT22;10223;50.862;4.360;2023-07-24T10:58:29;20.30;99.90
20125;DHT22;10223;50.862;4.360;2023-07-24T11:00:56;20.20;99.90
20125;DHT22;10223;50.862;4.360;2023-07-24T11:03:25;19.90;99.90
20125;DHT22;10223;50.862;4.360;2023-07-24T11:05:52;19.90;99.90
20125;DHT22;10223;50.862;4.360;2023-07-24T11:08:21;20.00;99.90
20125;DHT22;10223;50.862;4.360;2023-07-24T11:10:48;20.00;99.90
20125;DHT22;10223;50.862;4.360;2023-07-24T11:13:16;20.00;99.90
20125;DHT22;10223;50.862;4.360;2023-07-24T11:15:43;19.90;99.90
20125;DHT22;10223;50.862;4.360;2023-07-24T11:18:10;19.70;99.90
20125;DHT22;10223;50.862;4.360;2023-07-24T11:20:38;19.80;99.90
20125;DHT22;10223;50.862;4.360;2023-07-24T11:23:10;19.80;99.90
20125;DHT22;10223;50.862;4.360;2023-07-24T11:25:38;19.70;99.90
20125;DHT22;10223;50.862;4.360;2023-07-24T11:28:05;19.80;99.90
20125;DHT22;10223;50.862;4.360;2023-07-24T11:30:33;19.90;99.90
20125;DHT22;10223;50.862;4.360;2023-07-24T11:33:01;20.10;99.90
20125;DHT22;10223;50.862;4.360;2023-07-24T11:35:29;20.30;99.90
20125;DHT22;10223;50.862;4.360;2023-07-24T11:37:56;20.40;99.90
20125;DHT22;10223;50.862;4.360;2023-07-24T11:40:31;20.50;99.90
20125;DHT22;10223;50.862;4.360;2023-07-24T11:42:59;20.70;99.90
20125;DHT22;10223;50.862;4.360;2023-07-24T11:45:26;20.80;99.90
20125;DHT22;10223;50.862;4.360;2023-07-24T11:47:53;21.00;99.90
20125;DHT22;10223;50.862;4.360;2023-07-24T11:50:22;21.40;99.90
20125;DHT22;10223;50.862;4.360;2023-07-24T11:52:51;21.50;99.90
20125;DHT22;10223;50.862;4.360;2023-07-24T11:55:20;21.70;99.90
20125;DHT22;10223;50.862;4.360;2023-07-24T11:57:56;21.80;99.90
20125;DHT22;10223;50.862;4.360;2023-07-24T12:00:25;21.90;99.90
20125;DHT22;10223;50.862;4.360;2023-07-24T12:02:52;21.70;99.90
20125;DHT22;10223;50.862;4.360;2023-07-24T12:05:19;21.40;99.90
20125;DHT22;10223;50.862;4.360;2023-07-24T12:07:46;21.50;99.90
20125;DHT22;10223;50.862;4.360;2023-07-24T12:10:24;21.80;99.90
20125;DHT22;10223;50.862;4.360;2023-07-24T12:12:51;21.90;99.90
20125;DHT22;10223;50.862;4.360;2023-07-24T12:15:18;22.00;99.90
20125;DHT22;10223;50.862;4.360;2023-07-24T12:17:46;22.40;99.90
20125;DHT22;10223;50.862;4.360;2023-07-24T12:20:13;22.50;99.90
20125;DHT22;10223;50.862;4.360;2023-07-24T12:22:41;22.30;99.90
20125;DHT22;10223;50.862;4.360;2023-07-24T12:25:08;21.80;99.90
20125;DHT22;10223;50.862;4.360;2023-07-24T12:27:35;21.60;99.90
20125;DHT22;10223;50.862;4.360;2023-07-24T12:30:03;21.20;99.90
20125;DHT22;10223;50.862;4.360;2023-07-24T12:32:31;21.10;99.90
20125;DHT22;10223;50.862;4.360;2023-07-24T12:34:59;21.20;99.90
20125;DHT22;10223;50.862;4.360;2023-07-24T12:37:26;21.10;99.90
20125;DHT22;10223;50.862;4.360;2023-07-24T12:39:54;20.80;99.90
20125;DHT22;10223;50.862;4.360;2023-07-24T12:42:20;20.80;99.90
20125;DHT22;10223;50.862;4.360;2023-07-24T12:44:49;20.90;99.90
20125;DHT22;10223;50.862;4.360;2023-07-24T12:47:15;21.00;99.90
20125;DHT22;10223;50.862;4.360;2023-07-24T12:49:42;21.20;99.90
20125;DHT22;10223;50.862;4.360;2023-07-24T12:52:11;21.40;99.90
20125;DHT22;10223;50.862;4.360;2023-07-24T12:54:38;21.50;99.90
20125;DHT22;10223;50.862;4.360;2023-07-24T12:57:05;21.20;99.90
20125;DHT22;10223;50.862;4.360;2023-07-24T12:59:32;21.10;99.90
20125;DHT22;10223;50.862;4.360;2023-07-24T13:01:59;21.00;99.90
20125;DHT22;10223;50.862;4.360;2023-07-24T13:04:26;21.10;99.90
20125;DHT22;10223;50.862;4.360;2023-07-24T13:06:52;21.40;99.90
20125;DHT22;10223;50.862;4.360;2023-07-24T13:09:21;21.20;99.90
20125;DHT22;10223;50.862;4.360;2023-07-24T13:11:49;21.30;99.90
20125;DHT22;10223;50.862;4.360;2023-07-24T13:14:17;21.30;99.90
20125;DHT22;10223;50.862;4.360;2023-07-24T13:16:44;21.40;99.90
20125;DHT22;10223;50.862;4.360;2023-07-24T13:19:11;21.30;99.90
20125;DHT22;10223;50.862;4.360;2023-07-24T13:21:38;21.40;99.90
20125;DHT22;10223;50.862;4.360;2023-07-24T13:24:05;21.30;99.90
20125;DHT22;10223;50.862;4.360;2023-07-24T13:26:33;21.20;99.90
20125;DHT22;10223;50.862;4.360;2023-07-24T13:29:00;21.20;99.90
20125;DHT22;10223;50.862;4.360;2023-07-24T13:31:27;21.20;99.90
20125;DHT22;10223;50.862;4.360;2023-07-24T13:33:54;21.30;99.90
20125;DHT22;10223;50.862;4.360;2023-07-24T13:36:21;21.40;99.90
20125;DHT22;10223;50.862;4.360;2023-07-24T13:38:48;21.50;99.90
20125;DHT22;10223;50.862;4.360;2023-07-24T13:41:15;21.30;99.90
20125;DHT22;10223;50.862;4.360;2023-07-24T13:43:44;21.20;99.90
20125;DHT22;10223;50.862;4.360;2023-07-24T13:46:10;20.90;99.90
20125;DHT22;10223;50.862;4.360;2023-07-24T13:48:37;20.90;99.90
20125;DHT22;10223;50.862;4.360;2023-07-24T13:51:04;20.80;99.90
20125;DHT22;10223;50.862;4.360;2023-07-24T13:53:31;21.10;99.90
20125;DHT22;10223;50.862;4.360;2023-07-24T13:55:58;21.40;99.90
20125;DHT22;10223;50.862;4.360;2023-07-24T13:58:25;21.80;99.90
20125;DHT22;10223;50.862;4.360;2023-07-24T14:00:53;21.70;99.90
20125;DHT22;10223;50.862;4.360;2023-07-24T14:03:20;21.70;99.90
20125;DHT22;10223;50.862;4.360;2023-07-24T14:05:46;21.60;99.90
20125;DHT22;10223;50.862;4.360;2023-07-24T14:08:13;21.40;99.90
20125;DHT22;10223;50.862;4.360;2023-07-24T14:10:40;21.40;99.90
20125;DHT22;10223;50.862;4.360;2023-07-24T14:13:07;21.90;99.90
20125;DHT22;10223;50.862;4.360;2023-07-24T14:15:34;22.50;99.90
20125;DHT22;10223;50.862;4.360;2023-07-24T14:18:02;23.20;99.90
20125;DHT22;10223;50.862;4.360;2023-07-24T14:20:29;23.40;99.90
20125;DHT22;10223;50.862;4.360;2023-07-24T14:22:56;24.20;99.90
20125;DHT22;10223;50.862;4.360;2023-07-24T14:25:22;24.80;99.90
20125;DHT22;10223;50.862;4.360;2023-07-24T14:27:49;25.20;99.90
20125;DHT22;10223;50.862;4.360;2023-07-24T14:30:16;25.60;99.90
20125;DHT22;10223;50.862;4.360;2023-07-24T14:32:43;26.30;99.90
20125;DHT22;10223;50.862;4.360;2023-07-24T14:35:11;25.30;99.90
20125;DHT22;10223;50.862;4.360;2023-07-24T14:37:38;25.50;99.90
20125;DHT22;10223;50.862;4.360;2023-07-24T14:40:06;25.20;99.90
20125;DHT22;10223;50.862;4.360;2023-07-24T14:42:33;24.70;99.90
20125;DHT22;10223;50.862;4.360;2023-07-24T14:45:00;24.10;99.90
20125;DHT22;10223;50.862;4.360;2023-07-24T14:47:28;23.40;99.90
20125;DHT22;10223;50.862;4.360;2023-07-24T14:49:56;22.70;99.90
20125;DHT22;10223;50.862;4.360;2023-07-24T14:52:24;22.10;99.90
20125;DHT22;10223;50.862;4.360;2023-07-24T14:54:51;21.80;99.90
20125;DHT22;10223;50.862;4.360;2023-07-24T14:57:18;21.40;99.90
20125;DHT22;10223;50.862;4.360;2023-07-24T14:59:45;20.90;99.90
20125;DHT22;10223;50.862;4.360;2023-07-24T15:02:11;20.60;99.90
20125;DHT22;10223;50.862;4.360;2023-07-24T15:04:38;20.40;99.90
20125;DHT22;10223;50.862;4.360;2023-07-24T15:07:05;20.10;99.90
20125;DHT22;10223;50.862;4.360;2023-07-24T15:09:33;19.60;99.90
20125;DHT22;10223;50.862;4.360;2023-07-24T15:12:00;19.10;99.90
20125;DHT22;10223;50.862;4.360;2023-07-24T15:14:27;18.70;99.90
20125;DHT22;10223;50.862;4.360;2023-07-24T15:16:53;18.40;99.90
20125;DHT22;10223;50.862;4.360;2023-07-24T15:19:20;18.30;99.90
20125;DHT22;10223;50.862;4.360;2023-07-24T15:21:47;18.10;99.90
20125;DHT22;10223;50.862;4.360;2023-07-24T15:24:14;18.10;99.90
20125;DHT22;10223;50.862;4.360;2023-07-24T15:26:44;18.00;99.90
20125;DHT22;10223;50.862;4.360;2023-07-24T15:29:11;18.20;99.90
20125;DHT22;10223;50.862;4.360;2023-07-24T15:31:40;18.10;99.90